createdAt,value
2022-11-24T00:01:18.478Z,147.47
2022-11-24T00:03:48.492Z,134.03
2022-11-24T00:06:17.627Z,135.07
2022-11-24T00:08:47.211Z,131.17
2022-11-24T00:11:19.181Z,132.60
2022-11-24T00:13:47.925Z,142.23
2022-11-24T00:16:18.647Z,138.57
2022-11-24T00:18:48.407Z,144.40
2022-11-24T00:21:18.134Z,142.03
2022-11-24T00:23:46.883Z,131.70
2022-11-24T00:26:17.029Z,149.63
2022-11-24T00:28:47.950Z,132.33
2022-11-24T00:31:18.497Z,139.40
2022-11-24T00:33:47.748Z,160.10
2022-11-24T00:36:17.095Z,144.10
2022-11-24T00:38:45.640Z,141.20
2022-11-24T00:41:14.383Z,143.77
2022-11-24T00:43:42.509Z,139.50
2022-11-24T00:46:12.642Z,136.23
2022-11-24T00:48:41.003Z,149.20
2022-11-24T00:51:11.229Z,169.33
2022-11-24T00:53:40.046Z,129.10
2022-11-24T00:56:09.756Z,142.47
2022-11-24T00:58:38.779Z,167.27
2022-11-24T01:01:14.467Z,144.53
2022-11-24T01:03:43.178Z,155.63
2022-11-24T01:06:13.377Z,140.00
2022-11-24T01:08:42.204Z,143.33
2022-11-24T01:11:12.922Z,146.03
2022-11-24T01:13:42.302Z,132.90
2022-11-24T01:16:17.455Z,138.77
2022-11-24T01:18:45.912Z,138.07
2022-11-24T01:21:14.493Z,135.07
2022-11-24T01:23:42.964Z,128.90
2022-11-24T01:26:13.047Z,133.17
2022-11-24T01:28:46.606Z,127.60
2022-11-24T01:31:17.534Z,130.90
2022-11-24T01:33:45.697Z,145.23
2022-11-24T01:36:13.866Z,141.40
2022-11-24T01:38:42.160Z,147.13
2022-11-24T01:41:12.728Z,143.53
2022-11-24T01:43:41.497Z,128.03
2022-11-24T01:46:20.472Z,136.73
2022-11-24T01:48:53.934Z,139.77
2022-11-24T01:51:26.175Z,125.33
2022-11-24T01:53:59.096Z,140.57
2022-11-24T01:56:28.555Z,145.63
2022-11-24T01:59:00.055Z,117.10
2022-11-24T02:01:31.530Z,136.87
2022-11-24T02:04:01.814Z,148.63
2022-11-24T02:06:33.300Z,126.90
2022-11-24T02:09:05.792Z,143.17
2022-11-24T02:11:36.716Z,123.60
2022-11-24T02:14:06.379Z,117.03
2022-11-24T02:16:38.432Z,137.90
2022-11-24T02:19:14.969Z,148.23
2022-11-24T02:21:43.120Z,117.83
2022-11-24T02:24:16.550Z,134.23
2022-11-24T02:26:48.244Z,133.37
2022-11-24T02:29:16.849Z,151.90
2022-11-24T02:31:49.189Z,164.40
2022-11-24T02:34:17.325Z,133.67
2022-11-24T02:36:45.932Z,137.73
2022-11-24T02:39:15.646Z,122.90
2022-11-24T02:41:49.319Z,122.80
2022-11-24T02:44:21.087Z,121.93
2022-11-24T02:46:49.246Z,152.43
2022-11-24T02:49:17.362Z,133.63
2022-11-24T02:51:46.040Z,140.40
2022-11-24T02:54:14.371Z,150.57
2022-11-24T02:56:42.492Z,130.70
2022-11-24T02:59:12.032Z,117.33
2022-11-24T03:01:40.250Z,138.50
2022-11-24T03:04:08.486Z,143.33
2022-11-24T03:06:36.643Z,148.63
2022-11-24T03:09:04.862Z,138.63
2022-11-24T03:11:33.229Z,113.30
2022-11-24T03:14:01.438Z,117.00
2022-11-24T03:16:31.127Z,146.27
2022-11-24T03:18:59.824Z,118.33
2022-11-24T03:21:28.412Z,125.77
2022-11-24T03:23:56.678Z,134.97
2022-11-24T03:26:26.454Z,143.53
2022-11-24T03:28:56.178Z,111.97
2022-11-24T03:31:25.101Z,113.80
2022-11-24T03:33:54.646Z,120.13
2022-11-24T03:36:22.831Z,136.83
2022-11-24T03:38:51.014Z,117.17
2022-11-24T03:41:19.180Z,192.93
2022-11-24T03:43:47.307Z,123.33
2022-11-24T03:46:15.599Z,150.67
2022-11-24T03:48:43.933Z,157.43
2022-11-24T03:51:13.450Z,154.67
2022-11-24T03:53:41.575Z,162.30
2022-11-24T03:56:09.980Z,132.40
2022-11-24T03:58:38.127Z,152.20
2022-11-24T04:01:06.590Z,147.43
2022-11-24T04:03:34.730Z,153.20
2022-11-24T04:06:02.885Z,109.80
2022-11-24T04:08:32.644Z,133.90
2022-11-24T04:11:00.956Z,131.30
2022-11-24T04:13:28.173Z,183.13
2022-11-24T04:15:57.478Z,225.83
2022-11-24T04:18:25.654Z,169.30
2022-11-24T04:20:53.820Z,272.93
2022-11-24T04:23:22.112Z,125.07
2022-11-24T04:25:51.648Z,195.03
2022-11-24T04:28:19.815Z,99.93
2022-11-24T04:30:47.992Z,149.77
2022-11-24T04:33:16.154Z,147.63
2022-11-24T04:35:44.336Z,161.70
2022-11-24T04:38:12.483Z,133.00
2022-11-24T04:40:40.632Z,190.67
2022-11-24T04:43:10.260Z,147.10
2022-11-24T04:45:38.445Z,144.00
2022-11-24T04:48:07.155Z,127.63
2022-11-24T04:50:35.286Z,198.80
2022-11-24T04:53:03.422Z,130.90
2022-11-24T04:55:31.591Z,202.27
2022-11-24T04:57:59.954Z,195.27
2022-11-24T05:00:29.737Z,148.27
2022-11-24T05:02:58.266Z,266.00
2022-11-24T05:05:26.503Z,177.20
2022-11-24T05:07:54.673Z,254.33
2022-11-24T05:10:38.136Z,147.00
2022-11-24T05:13:12.748Z,124.27
2022-11-24T05:15:42.838Z,278.43
2022-11-24T05:18:13.604Z,331.67
2022-11-24T05:20:41.776Z,119.43
2022-11-24T05:23:09.920Z,139.53
2022-11-24T05:25:38.228Z,344.17
2022-11-24T05:28:09.904Z,289.40
2022-11-24T05:30:39.720Z,192.23
2022-11-24T05:33:12.129Z,140.23
2022-11-24T05:35:40.425Z,170.90
2022-11-24T05:38:08.643Z,161.27
2022-11-24T05:40:37.140Z,205.53
2022-11-24T05:43:05.426Z,200.53
2022-11-24T05:45:33.566Z,157.17
2022-11-24T05:48:06.095Z,153.00
2022-11-24T05:50:35.979Z,275.00
2022-11-24T05:53:05.420Z,162.30
2022-11-24T05:55:34.162Z,163.63
2022-11-24T05:58:04.979Z,213.83
2022-11-24T06:00:34.135Z,127.80
2022-11-24T06:03:02.664Z,339.43
2022-11-24T06:05:31.139Z,138.97
2022-11-24T06:08:01.476Z,277.77
2022-11-24T06:10:29.666Z,208.97
2022-11-24T06:12:58.133Z,153.63
2022-11-24T06:15:26.299Z,188.00
2022-11-24T06:17:55.838Z,155.27
2022-11-24T06:20:28.333Z,116.33
2022-11-24T06:23:01.952Z,245.80
2022-11-24T06:25:30.360Z,185.57
2022-11-24T06:27:58.508Z,168.97
2022-11-24T06:30:26.649Z,177.30
2022-11-24T06:32:55.975Z,181.17
2022-11-24T06:35:24.156Z,166.20
2022-11-24T06:37:52.286Z,234.63
2022-11-24T06:40:21.769Z,213.90
2022-11-24T06:42:53.146Z,129.23
2022-11-24T06:45:21.302Z,147.93
2022-11-24T06:47:49.456Z,172.70
2022-11-24T06:50:17.664Z,176.20
2022-11-24T06:52:45.820Z,126.87
2022-11-24T06:55:14.114Z,133.03
2022-11-24T06:57:43.580Z,145.53
2022-11-24T07:00:13.016Z,87.13
2022-11-24T07:02:45.638Z,111.93
2022-11-24T07:05:14.507Z,131.70
2022-11-24T07:07:42.953Z,90.90
2022-11-24T07:10:11.210Z,111.20
2022-11-24T07:12:39.348Z,98.67
2022-11-24T07:15:10.465Z,196.77
2022-11-24T07:17:38.832Z,126.80
2022-11-24T07:20:08.767Z,101.60
2022-11-24T07:22:36.962Z,96.57
2022-11-24T07:25:07.428Z,98.27
2022-11-24T07:27:35.598Z,125.13
2022-11-24T07:30:04.460Z,85.63
2022-11-24T07:32:33.995Z,114.50
2022-11-24T07:35:02.134Z,76.53
2022-11-24T07:37:31.902Z,65.93
2022-11-24T07:40:00.189Z,113.90
2022-11-24T07:42:28.690Z,139.93
2022-11-24T07:44:56.804Z,109.13
2022-11-24T07:47:24.964Z,106.43
2022-11-24T07:49:54.561Z,61.30
2022-11-24T07:52:23.425Z,99.93
2022-11-24T07:54:51.568Z,96.67
2022-11-24T07:57:19.727Z,81.70
2022-11-24T07:59:47.845Z,72.17
2022-11-24T08:02:16.279Z,62.67
2022-11-24T08:04:44.415Z,77.63
2022-11-24T08:07:14.174Z,79.87
2022-11-24T08:09:42.343Z,65.60
2022-11-24T08:12:10.611Z,93.30
2022-11-24T08:14:38.736Z,58.93
2022-11-24T08:17:07.175Z,75.33
2022-11-24T08:19:35.526Z,72.03
2022-11-24T08:22:03.680Z,66.43
2022-11-24T08:24:33.498Z,53.23
2022-11-24T08:27:01.890Z,89.53
2022-11-24T08:29:30.775Z,58.77
2022-11-24T08:31:58.982Z,66.67
2022-11-24T08:34:27.387Z,67.57
2022-11-24T08:36:55.504Z,53.20
2022-11-24T08:39:23.743Z,58.43
2022-11-24T08:41:53.220Z,66.57
2022-11-24T08:44:21.497Z,48.33
2022-11-24T08:46:49.943Z,85.27
2022-11-24T08:49:18.933Z,73.57
2022-11-24T08:51:48.613Z,52.40
2022-11-24T08:54:18.682Z,61.97
2022-11-24T08:56:47.193Z,47.30
2022-11-24T08:59:17.106Z,46.23
2022-11-24T09:01:45.625Z,51.50
2022-11-24T09:04:14.272Z,57.87
2022-11-24T09:06:42.444Z,62.50
2022-11-24T09:09:10.936Z,60.10
2022-11-24T09:11:39.117Z,59.07
2022-11-24T09:14:07.403Z,71.13
2022-11-24T09:16:37.276Z,66.77
2022-11-24T09:19:08.026Z,82.37
2022-11-24T09:21:38.900Z,94.23
2022-11-24T09:24:08.329Z,79.60
2022-11-24T09:26:43.059Z,79.70
2022-11-24T09:29:14.662Z,75.87
2022-11-24T09:31:44.398Z,65.97
2022-11-24T09:34:15.459Z,60.03
2022-11-24T09:36:43.927Z,58.20
2022-11-24T09:39:12.489Z,56.33
2022-11-24T09:42:04.461Z,56.93
2022-11-24T09:45:26.295Z,66.13
2022-11-24T09:48:04.203Z,53.03
2022-11-24T09:50:34.761Z,64.93
2022-11-24T09:53:09.135Z,60.80
2022-11-24T09:55:43.340Z,50.03
2022-11-24T09:58:34.988Z,59.50
2022-11-24T10:01:06.385Z,61.10
2022-11-24T10:03:40.302Z,57.70
2022-11-24T10:06:24.868Z,58.73
2022-11-24T10:09:07.734Z,53.23
2022-11-24T10:11:40.541Z,51.13
2022-11-24T10:14:29.147Z,56.03
2022-11-24T10:17:10.104Z,63.80
2022-11-24T10:19:46.819Z,66.23
2022-11-24T10:22:29.495Z,65.40
2022-11-24T10:25:08.701Z,55.73
2022-11-24T10:27:41.089Z,57.23
2022-11-24T10:30:16.195Z,57.53
2022-11-24T10:32:48.203Z,43.87
2022-11-24T10:35:20.629Z,50.57
2022-11-24T10:37:56.969Z,58.03
2022-11-24T10:40:57.713Z,55.23
2022-11-24T10:43:22.504Z,54.03
2022-11-24T10:45:51.164Z,50.53
2022-11-24T10:48:23.521Z,50.20
2022-11-24T10:50:55.234Z,48.60
2022-11-24T10:53:26.557Z,60.33
2022-11-24T10:56:03.718Z,54.23
2022-11-24T10:58:37.671Z,49.10
2022-11-24T11:01:29.389Z,47.27
2022-11-24T11:04:01.538Z,51.77
2022-11-24T11:06:32.314Z,52.60
2022-11-24T11:09:19.642Z,50.43
2022-11-24T11:11:49.219Z,55.10
2022-11-24T11:14:30.981Z,55.20
2022-11-24T11:16:59.513Z,50.33
2022-11-24T11:19:48.531Z,51.30
2022-11-24T11:22:26.117Z,55.93
2022-11-24T11:25:14.821Z,50.53
2022-11-24T11:27:43.408Z,47.60
2022-11-24T11:36:11.834Z,45.80
2022-11-24T11:38:43.176Z,60.43
2022-11-24T11:41:20.193Z,62.37
2022-11-24T11:43:55.646Z,56.90
2022-11-24T11:46:26.040Z,51.63
2022-11-24T11:48:54.464Z,53.07
2022-11-24T11:51:42.525Z,54.60
2022-11-24T11:54:26.363Z,49.30
2022-11-24T11:57:07.921Z,60.97
2022-11-24T11:59:56.307Z,55.43
2022-11-24T12:02:53.443Z,45.60
2022-11-24T12:05:32.003Z,63.47
2022-11-24T12:08:17.561Z,62.80
2022-11-24T12:10:59.746Z,65.90
2022-11-24T12:13:48.291Z,58.27
2022-11-24T12:16:35.670Z,44.03
2022-11-24T12:19:20.651Z,54.20
2022-11-24T12:21:58.857Z,53.83
2022-11-24T12:24:40.327Z,44.97
2022-11-24T12:27:22.606Z,48.20
2022-11-24T12:30:09.873Z,53.17
2022-11-24T12:33:15.447Z,50.57
2022-11-24T12:35:45.680Z,51.97
2022-11-24T12:38:30.141Z,44.87
2022-11-24T12:44:18.291Z,46.60
2022-11-24T12:46:57.197Z,49.27
2022-11-24T12:49:35.308Z,48.60
2022-11-24T12:52:07.617Z,45.70
2022-11-24T12:54:40.898Z,50.10
2022-11-24T12:57:19.369Z,52.83
2022-11-24T12:59:54.563Z,50.93
2022-11-24T13:02:31.004Z,47.20
2022-11-24T13:05:14.389Z,47.90
2022-11-24T13:07:47.181Z,48.80
2022-11-24T13:13:23.159Z,48.20
2022-11-24T13:19:10.024Z,47.10
2022-11-24T13:22:01.229Z,42.23
2022-11-24T13:24:32.061Z,56.77
2022-11-24T13:27:29.622Z,37.93
2022-11-24T13:29:57.837Z,43.07
2022-11-24T13:33:21.654Z,47.93
2022-11-24T13:36:30.973Z,53.97
2022-11-24T13:39:00.529Z,47.13
2022-11-24T13:42:09.248Z,53.43
2022-11-24T13:44:51.752Z,53.17
2022-11-24T13:47:43.756Z,49.83
2022-11-24T13:50:24.743Z,56.00
2022-11-24T13:53:01.244Z,49.07
2022-11-24T13:55:33.590Z,52.77
2022-11-24T13:58:32.448Z,49.67
2022-11-24T14:01:12.103Z,47.97
2022-11-24T14:04:07.143Z,50.37
2022-11-24T14:06:41.236Z,50.73
2022-11-24T14:09:23.332Z,54.73
2022-11-24T14:12:06.461Z,53.73
2022-11-24T14:14:35.099Z,53.63
2022-11-24T14:17:17.001Z,53.37
2022-11-24T14:19:47.151Z,56.17
2022-11-24T14:22:19.753Z,53.63
2022-11-24T14:24:54.255Z,44.77
2022-11-24T14:27:29.268Z,54.13
2022-11-24T14:29:59.689Z,51.70
2022-11-24T14:32:27.851Z,53.20
2022-11-24T14:34:56.920Z,57.60
2022-11-24T14:37:26.705Z,53.40
2022-11-24T14:39:54.844Z,45.07
2022-11-24T14:42:25.327Z,43.50
2022-11-24T14:44:56.505Z,43.27
2022-11-24T14:47:31.735Z,45.23
2022-11-24T14:50:09.829Z,57.03
2022-11-24T14:52:45.601Z,51.50
2022-11-24T14:55:26.094Z,46.77
2022-11-24T14:57:54.608Z,52.87
2022-11-24T15:00:28.942Z,50.93
2022-11-24T15:03:15.984Z,47.13
2022-11-24T15:05:56.460Z,50.10
2022-11-24T15:08:27.984Z,47.17
2022-11-24T15:10:59.004Z,61.53
2022-11-24T15:13:35.005Z,47.83
2022-11-24T15:16:06.113Z,44.60
2022-11-24T15:18:40.517Z,50.63
2022-11-24T15:21:14.117Z,52.23
2022-11-24T15:24:06.176Z,56.60
2022-11-24T15:26:41.353Z,50.97
2022-11-24T15:29:10.951Z,59.30
2022-11-24T15:31:39.453Z,63.20
2022-11-24T15:34:08.276Z,47.27
2022-11-24T15:36:36.454Z,43.27
2022-11-24T15:39:06.182Z,61.80
2022-11-24T15:41:34.733Z,52.53
2022-11-24T15:44:02.888Z,60.73
2022-11-24T15:46:37.701Z,58.53
2022-11-24T15:49:07.239Z,55.70
2022-11-24T15:51:36.976Z,56.90
2022-11-24T15:54:07.235Z,70.40
2022-11-24T15:56:36.805Z,54.70
2022-11-24T15:59:05.564Z,60.43
2022-11-24T16:01:35.215Z,60.47
2022-11-24T16:04:03.618Z,50.10
2022-11-24T16:06:31.824Z,49.00
2022-11-24T16:09:00.047Z,56.97
2022-11-24T16:11:29.508Z,50.57
2022-11-24T16:13:57.914Z,57.90
2022-11-24T16:16:26.166Z,63.47
2022-11-24T16:18:54.488Z,78.77
2022-11-24T16:21:23.344Z,100.40
2022-11-24T16:23:51.848Z,170.53
2022-11-24T16:26:19.964Z,62.67
2022-11-24T16:28:49.379Z,109.57
2022-11-24T16:31:18.981Z,86.87
2022-11-24T16:33:47.354Z,98.10
2022-11-24T16:36:15.627Z,99.20
2022-11-24T16:38:43.804Z,83.70
2022-11-24T16:41:12.420Z,85.83
2022-11-24T16:43:40.685Z,104.70
2022-11-24T16:46:21.350Z,119.03
2022-11-24T16:48:51.567Z,84.83
2022-11-24T16:51:21.398Z,146.13
2022-11-24T16:53:49.721Z,181.63
2022-11-24T16:56:17.873Z,120.40
2022-11-24T16:58:45.998Z,157.53
2022-11-24T17:01:14.813Z,295.97
2022-11-24T17:03:44.528Z,219.50
2022-11-24T17:06:15.730Z,148.33
2022-11-24T17:08:45.113Z,243.53
2022-11-24T17:11:15.318Z,146.00
2022-11-24T17:13:44.310Z,154.00
2022-11-24T17:16:15.213Z,97.20
2022-11-24T17:18:45.373Z,130.80
2022-11-24T17:21:15.524Z,176.07
2022-11-24T17:23:44.102Z,111.23
2022-11-24T17:26:14.198Z,195.27
2022-11-24T17:28:43.067Z,155.83
2022-11-24T17:31:17.908Z,171.50
2022-11-24T17:33:47.465Z,191.13
2022-11-24T17:36:15.808Z,109.63
2022-11-24T17:38:44.023Z,206.47
2022-11-24T17:41:12.517Z,160.43
2022-11-24T17:43:40.973Z,151.57
2022-11-24T17:46:11.514Z,228.37
2022-11-24T17:48:39.714Z,204.47
2022-11-24T17:51:12.838Z,143.63
2022-11-24T17:53:42.172Z,103.20
2022-11-24T17:56:14.330Z,160.00
2022-11-24T17:58:43.543Z,112.03
2022-11-24T18:01:12.591Z,239.60
2022-11-24T18:03:41.695Z,100.93
2022-11-24T18:06:12.729Z,146.87
2022-11-24T18:08:43.064Z,166.63
2022-11-24T18:11:12.915Z,183.13
2022-11-24T18:13:56.623Z,113.97
2022-11-24T18:16:30.604Z,147.33
2022-11-24T18:19:10.065Z,156.93
2022-11-24T18:21:41.420Z,84.10
2022-11-24T18:24:10.656Z,168.77
2022-11-24T18:26:39.148Z,114.07
2022-11-24T18:29:07.844Z,244.30
2022-11-24T18:31:36.319Z,79.80
2022-11-24T18:34:06.008Z,178.33
2022-11-24T18:36:34.934Z,126.27
2022-11-24T18:39:06.014Z,170.33
2022-11-24T18:41:34.875Z,191.80
2022-11-24T18:44:07.496Z,132.87
2022-11-24T18:46:35.661Z,180.13
2022-11-24T18:49:04.333Z,69.07
2022-11-24T18:51:32.455Z,163.13
2022-11-24T18:54:02.208Z,87.90
2022-11-24T18:56:31.709Z,111.70
2022-11-24T18:58:59.828Z,94.63
2022-11-24T19:01:29.495Z,230.20
2022-11-24T19:04:00.198Z,274.57
2022-11-24T19:06:32.348Z,148.70
2022-11-24T19:09:02.988Z,76.53
2022-11-24T19:11:35.298Z,86.67
2022-11-24T19:14:04.999Z,99.47
2022-11-24T19:16:33.651Z,182.30
2022-11-24T19:19:03.037Z,97.93
2022-11-24T19:21:32.561Z,81.47
2022-11-24T19:24:05.250Z,76.80
2022-11-24T19:26:35.791Z,68.67
2022-11-24T19:29:04.732Z,75.87
2022-11-24T19:31:33.942Z,79.20
2022-11-24T19:34:03.103Z,85.40
2022-11-24T19:36:31.897Z,86.53
2022-11-24T19:39:00.508Z,62.83
2022-11-24T19:41:30.697Z,66.63
2022-11-24T19:44:00.627Z,59.07
2022-11-24T19:46:30.154Z,61.10
2022-11-24T19:49:01.365Z,64.57
2022-11-24T19:51:31.592Z,63.37
2022-11-24T19:54:00.333Z,57.87
2022-11-24T19:56:30.615Z,59.03
2022-11-24T19:59:00.085Z,59.93
2022-11-24T20:01:30.484Z,66.10
2022-11-24T20:04:00.737Z,69.97
2022-11-24T20:06:30.976Z,61.10
2022-11-24T20:09:00.465Z,60.57
2022-11-24T20:11:29.461Z,51.90
2022-11-24T20:13:59.871Z,63.70
2022-11-24T20:16:30.395Z,55.73
2022-11-24T20:19:00.448Z,59.43
2022-11-24T20:21:31.182Z,52.83
2022-11-24T20:24:01.301Z,56.00
2022-11-24T20:26:32.252Z,52.57
2022-11-24T20:29:02.480Z,54.37
2022-11-24T20:31:33.277Z,54.83
2022-11-24T20:34:02.569Z,55.23
2022-11-24T20:36:32.489Z,52.60
2022-11-24T20:39:02.603Z,70.93
2022-11-24T20:41:33.704Z,54.17
2022-11-24T20:44:07.236Z,55.47
2022-11-24T20:46:37.894Z,49.63
2022-11-24T20:49:07.993Z,60.83
2022-11-24T20:51:39.053Z,51.53
2022-11-24T20:54:09.273Z,48.00
2022-11-24T20:56:39.804Z,54.23
2022-11-24T20:59:11.509Z,50.17
2022-11-24T21:01:42.577Z,57.03
2022-11-24T21:04:12.931Z,52.73
2022-11-24T21:06:41.227Z,49.17
2022-11-24T21:09:10.195Z,54.67
2022-11-24T21:11:39.136Z,59.10
2022-11-24T21:14:09.556Z,61.93
2022-11-24T21:16:39.240Z,54.83
2022-11-24T21:19:09.600Z,53.53
2022-11-24T21:21:39.588Z,59.37
2022-11-24T21:24:12.344Z,54.20
2022-11-24T21:26:41.757Z,54.33
2022-11-24T21:29:12.777Z,59.47
2022-11-24T21:31:41.169Z,59.30
2022-11-24T21:34:10.336Z,52.80
2022-11-24T21:36:40.750Z,52.97
2022-11-24T21:39:12.649Z,54.30
2022-11-24T21:41:41.527Z,52.00
2022-11-24T21:44:12.059Z,45.67
2022-11-24T21:46:45.057Z,54.00
2022-11-24T21:49:16.256Z,60.87
2022-11-24T21:51:44.388Z,53.07
2022-11-24T21:54:12.514Z,54.70
2022-11-24T21:56:40.699Z,51.43
2022-11-24T21:59:08.914Z,58.10
2022-11-24T22:01:38.736Z,50.07
2022-11-24T22:04:06.940Z,50.00
2022-11-24T22:06:35.313Z,52.73
2022-11-24T22:09:03.495Z,52.17
2022-11-24T22:11:31.622Z,46.00
2022-11-24T22:13:59.744Z,48.33
2022-11-24T22:16:28.095Z,46.27
2022-11-24T22:18:57.625Z,48.83
2022-11-24T22:21:30.076Z,51.67
2022-11-24T22:23:58.363Z,46.40
2022-11-24T22:26:27.748Z,44.80
2022-11-24T22:28:58.522Z,42.93
2022-11-24T22:31:28.665Z,49.87
2022-11-24T22:33:59.568Z,49.70
2022-11-24T22:36:29.185Z,41.37
2022-11-24T22:38:59.015Z,54.23
2022-11-24T22:41:27.192Z,49.50
2022-11-24T22:43:55.401Z,51.10
2022-11-24T22:46:24.862Z,51.83
2022-11-24T22:48:54.543Z,44.13
2022-11-24T22:51:25.793Z,42.37
2022-11-24T22:53:55.611Z,53.83
2022-11-24T22:56:24.860Z,53.83
2022-11-24T22:58:53.130Z,50.20
2022-11-24T23:01:23.394Z,51.83
2022-11-24T23:03:54.303Z,56.30
2022-11-24T23:06:25.266Z,50.17
2022-11-24T23:08:54.062Z,51.63
2022-11-24T23:11:30.698Z,54.80
2022-11-24T23:14:01.288Z,56.13
2022-11-24T23:16:29.953Z,55.67
2022-11-24T23:18:58.511Z,53.93
2022-11-24T23:21:29.884Z,50.93
2022-11-24T23:23:59.989Z,53.10
2022-11-24T23:26:30.152Z,46.37
2022-11-24T23:28:58.701Z,46.80
2022-11-24T23:31:28.957Z,44.53
2022-11-24T23:33:58.604Z,48.37
2022-11-24T23:36:29.226Z,48.10
2022-11-24T23:38:57.620Z,49.60
2022-11-24T23:41:26.833Z,48.93
2022-11-24T23:43:55.063Z,47.47
2022-11-24T23:46:25.083Z,45.73
2022-11-24T23:48:54.813Z,53.13
2022-11-24T23:51:24.325Z,48.33
2022-11-24T23:53:54.820Z,50.17
2022-11-24T23:56:25.028Z,43.80
2022-11-24T23:58:53.370Z,42.87
